createdAt,value
2018-11-06T00:01:47.540Z,71.62
2018-11-06T00:04:15.924Z,66.35
2018-11-06T00:06:48.136Z,68.22
2018-11-06T00:09:17.037Z,63.78
2018-11-06T00:11:45.727Z,66.37
2018-11-06T00:14:14.457Z,65.40
2018-11-06T00:16:43.009Z,63.87
2018-11-06T00:19:11.311Z,63.25
2018-11-06T00:21:39.649Z,64.67
2018-11-06T00:24:07.960Z,65.37
2018-11-06T00:26:36.455Z,60.88
2018-11-06T00:29:04.829Z,61.73
2018-11-06T00:31:33.339Z,63.75
2018-11-06T00:34:02.698Z,62.13
2018-11-06T00:36:31.631Z,60.33
2018-11-06T00:38:59.924Z,60.98
2018-11-06T00:41:28.429Z,65.52
2018-11-06T00:43:56.985Z,63.85
2018-11-06T00:46:25.517Z,63.85
2018-11-06T00:48:53.871Z,63.25
2018-11-06T00:51:22.570Z,62.83
2018-11-06T00:53:51.232Z,62.78
2018-11-06T00:56:20.375Z,62.40
2018-11-06T00:58:49.525Z,59.95
2018-11-06T01:01:18.054Z,62.70
2018-11-06T01:03:49.482Z,62.55
2018-11-06T01:06:17.784Z,59.45
2018-11-06T01:08:46.339Z,60.15
2018-11-06T01:11:14.740Z,59.58
2018-11-06T01:13:43.135Z,61.92
2018-11-06T01:16:11.537Z,62.50
2018-11-06T01:18:40.595Z,58.52
2018-11-06T01:21:08.874Z,59.77
2018-11-06T01:23:37.176Z,60.33
2018-11-06T01:26:05.736Z,59.93
2018-11-06T01:28:33.970Z,60.95
2018-11-06T01:31:02.289Z,61.35
2018-11-06T01:33:30.571Z,65.70
2018-11-06T01:35:58.906Z,61.08
2018-11-06T01:38:27.470Z,63.45
2018-11-06T01:40:55.746Z,63.63
2018-11-06T01:43:24.009Z,62.03
2018-11-06T01:45:52.262Z,60.33
2018-11-06T01:48:20.680Z,65.92
2018-11-06T01:50:49.114Z,66.50
2018-11-06T01:53:17.789Z,72.70
2018-11-06T01:55:47.596Z,60.08
2018-11-06T01:58:16.342Z,65.37
2018-11-06T02:00:44.706Z,66.87
2018-11-06T02:03:13.332Z,64.30
2018-11-06T02:05:41.685Z,64.30
2018-11-06T02:08:10.078Z,70.50
2018-11-06T02:10:38.498Z,83.37
2018-11-06T02:13:06.808Z,78.02
2018-11-06T02:15:35.205Z,78.28
2018-11-06T02:18:03.875Z,72.80
2018-11-06T02:20:32.251Z,78.67
2018-11-06T02:23:00.645Z,74.65
2018-11-06T02:25:29.279Z,73.62
2018-11-06T02:27:57.563Z,84.17
2018-11-06T02:30:25.813Z,87.27
2018-11-06T02:32:58.639Z,83.30
2018-11-06T02:35:28.102Z,85.55
2018-11-06T02:37:58.032Z,86.80
2018-11-06T02:40:28.123Z,88.22
2018-11-06T02:42:58.239Z,90.55
2018-11-06T02:45:30.719Z,85.22
2018-11-06T02:48:00.266Z,79.87
2018-11-06T02:50:28.778Z,84.03
2018-11-06T02:52:58.436Z,85.87
2018-11-06T02:55:28.610Z,90.40
2018-11-06T02:57:57.099Z,90.77
2018-11-06T03:00:25.904Z,83.12
2018-11-06T03:02:57.543Z,83.10
2018-11-06T03:05:26.066Z,82.57
2018-11-06T03:07:54.361Z,78.95
2018-11-06T03:10:22.581Z,76.17
2018-11-06T03:12:54.573Z,74.65
2018-11-06T03:15:24.054Z,78.72
2018-11-06T03:17:54.118Z,76.55
2018-11-06T03:20:26.505Z,68.33
2018-11-06T03:22:56.839Z,69.50
2018-11-06T03:25:28.897Z,68.17
2018-11-06T03:27:57.445Z,65.95
2018-11-06T03:30:27.477Z,60.83
2018-11-06T03:32:58.024Z,64.95
2018-11-06T03:35:27.570Z,64.77
2018-11-06T03:37:59.166Z,65.83
2018-11-06T03:40:28.107Z,64.82
2018-11-06T03:42:56.642Z,60.67
2018-11-06T03:45:28.308Z,62.10
2018-11-06T03:47:56.685Z,59.42
2018-11-06T03:50:25.798Z,57.13
2018-11-06T03:52:55.244Z,60.15
2018-11-06T03:55:27.963Z,54.93
2018-11-06T03:57:57.373Z,57.50
2018-11-06T04:00:25.789Z,53.55
2018-11-06T04:02:58.596Z,55.67
2018-11-06T04:05:27.031Z,54.55
2018-11-06T04:07:58.609Z,56.77
2018-11-06T04:10:28.540Z,57.60
2018-11-06T04:12:56.748Z,55.88
2018-11-06T04:15:25.208Z,56.05
2018-11-06T04:17:56.085Z,58.02
2018-11-06T04:20:27.634Z,55.38
2018-11-06T04:22:59.297Z,55.67
2018-11-06T04:25:28.022Z,52.35
2018-11-06T04:27:57.919Z,53.28
2018-11-06T04:30:29.653Z,52.80
2018-11-06T04:32:58.052Z,53.28
2018-11-06T04:35:28.477Z,54.88
2018-11-06T04:38:09.845Z,54.73
2018-11-06T04:40:38.984Z,52.80
2018-11-06T04:43:08.861Z,54.95
2018-11-06T04:45:47.079Z,51.70
2018-11-06T04:50:58.169Z,52.17
2018-11-06T04:53:35.409Z,50.67
2018-11-06T04:56:07.454Z,50.95
2018-11-06T04:58:39.296Z,49.00
2018-11-06T05:01:08.115Z,53.92
2018-11-06T05:03:44.012Z,49.35
2018-11-06T05:06:17.556Z,50.35
2018-11-06T05:08:46.802Z,51.13
2018-11-06T05:11:16.082Z,50.17
2018-11-06T05:13:48.025Z,48.83
2018-11-06T05:16:27.554Z,49.25
2018-11-06T05:18:59.259Z,48.65
2018-11-06T05:21:28.101Z,50.03
2018-11-06T05:27:08.729Z,47.75
2018-11-06T05:29:37.066Z,48.42
2018-11-06T05:32:08.213Z,50.65
2018-11-06T05:34:37.639Z,50.88
2018-11-06T05:37:05.973Z,51.35
2018-11-06T05:39:34.478Z,51.73
2018-11-06T05:42:05.414Z,59.05
2018-11-06T05:50:45.645Z,50.50
2018-11-06T06:00:15.936Z,45.70
2018-11-06T06:06:28.210Z,45.67
2018-11-06T06:09:09.052Z,48.30
2018-11-06T06:11:54.347Z,44.27
2018-11-06T06:14:28.373Z,43.15
2018-11-06T06:17:27.787Z,44.77
2018-11-06T06:19:59.058Z,43.33
2018-11-06T06:30:43.192Z,43.65
2018-11-06T06:33:16.520Z,42.67
2018-11-06T06:35:50.803Z,43.25
2018-11-06T06:38:39.909Z,42.95
2018-11-06T06:41:08.545Z,44.77
2018-11-06T06:43:42.576Z,43.15
2018-11-06T06:46:14.899Z,41.75
2018-11-06T06:48:44.951Z,40.80
2018-11-06T06:52:30.150Z,42.03
2018-11-06T06:58:58.770Z,41.85
2018-11-06T07:05:08.951Z,39.20
2018-11-06T07:07:38.256Z,38.60
2018-11-06T07:10:09.414Z,37.63
2018-11-06T07:12:40.060Z,39.10
2018-11-06T07:15:11.395Z,38.00
2018-11-06T07:17:44.662Z,36.45
2018-11-06T07:20:21.722Z,39.10
2018-11-06T07:22:52.700Z,38.02
2018-11-06T07:25:21.201Z,38.40
2018-11-06T07:27:50.425Z,39.08
2018-11-06T07:30:20.343Z,39.00
2018-11-06T07:32:48.773Z,37.67
2018-11-06T07:35:19.221Z,37.98
2018-11-06T07:37:47.639Z,35.78
2018-11-06T07:40:17.337Z,39.58
2018-11-06T07:42:45.657Z,36.20
2018-11-06T07:45:16.017Z,37.30
2018-11-06T07:47:44.517Z,38.55
2018-11-06T07:50:14.995Z,37.13
2018-11-06T07:52:44.125Z,41.90
2018-11-06T07:55:13.757Z,38.23
2018-11-06T07:57:42.453Z,36.90
2018-11-06T08:00:23.444Z,38.35
2018-11-06T08:02:52.969Z,38.28
2018-11-06T08:05:21.918Z,39.20
2018-11-06T08:07:51.765Z,39.80
2018-11-06T08:10:20.522Z,37.83
2018-11-06T08:12:50.382Z,39.55
2018-11-06T08:15:19.103Z,39.85
2018-11-06T08:17:47.786Z,39.50
2018-11-06T08:22:56.147Z,38.23
2018-11-06T08:25:24.786Z,39.53
2018-11-06T08:27:53.596Z,38.35
2018-11-06T08:30:22.428Z,35.23
2018-11-06T08:33:03.982Z,37.10
2018-11-06T08:35:37.561Z,36.15
2018-11-06T08:38:06.868Z,37.35
2018-11-06T08:40:44.270Z,37.35
2018-11-06T08:43:20.911Z,39.13
2018-11-06T08:45:53.115Z,37.60
2018-11-06T08:48:26.977Z,40.98
2018-11-06T08:50:56.853Z,37.55
2018-11-06T08:53:25.958Z,41.23
2018-11-06T08:55:56.378Z,37.65
2018-11-06T08:58:25.488Z,41.05
2018-11-06T09:00:54.217Z,35.90
2018-11-06T09:09:15.353Z,38.50
2018-11-06T09:11:47.674Z,37.83
2018-11-06T09:14:21.159Z,37.98
2018-11-06T09:16:55.693Z,37.85
2018-11-06T09:19:28.475Z,39.80
2018-11-06T09:22:12.828Z,40.88
2018-11-06T09:24:42.093Z,38.42
2018-11-06T09:27:11.264Z,35.98
2018-11-06T09:29:44.782Z,40.48
2018-11-06T09:32:15.195Z,43.60
2018-11-06T09:34:45.229Z,42.65
2018-11-06T09:37:15.952Z,40.60
2018-11-06T09:39:45.175Z,39.60
2018-11-06T09:42:14.363Z,40.50
2018-11-06T09:44:43.028Z,41.28
2018-11-06T09:47:11.970Z,43.58
2018-11-06T09:49:40.678Z,40.12
2018-11-06T09:52:09.461Z,40.83
2018-11-06T09:54:38.045Z,39.15
2018-11-06T09:57:06.419Z,43.17
2018-11-06T09:59:35.064Z,40.28
2018-11-06T10:02:04.272Z,42.48
2018-11-06T10:04:33.601Z,41.85
2018-11-06T10:07:08.584Z,42.17
2018-11-06T10:09:45.617Z,42.60
2018-11-06T10:12:20.061Z,40.98
2018-11-06T10:14:58.229Z,44.30
2018-11-06T10:17:33.419Z,41.88
2018-11-06T10:20:07.836Z,44.50
2018-11-06T10:22:38.734Z,41.73
2018-11-06T10:25:22.207Z,43.13
2018-11-06T10:27:57.818Z,39.85
2018-11-06T10:30:43.152Z,44.35
2018-11-06T10:33:11.919Z,43.25
2018-11-06T10:35:40.477Z,41.33
2018-11-06T10:38:09.054Z,41.60
2018-11-06T10:40:38.920Z,38.58
2018-11-06T10:43:07.552Z,42.40
2018-11-06T10:45:36.517Z,44.85
2018-11-06T10:48:05.654Z,42.45
2018-11-06T10:50:34.306Z,49.10
2018-11-06T10:53:02.967Z,45.85
2018-11-06T10:55:32.137Z,45.15
2018-11-06T10:58:00.943Z,45.15
2018-11-06T11:00:34.795Z,44.67
2018-11-06T11:03:11.988Z,43.10
2018-11-06T11:05:40.876Z,42.48
2018-11-06T11:08:09.383Z,43.25
2018-11-06T11:10:37.674Z,44.13
2018-11-06T11:13:06.725Z,44.33
2018-11-06T11:15:37.870Z,40.95
2018-11-06T11:18:07.293Z,41.95
2018-11-06T11:20:36.265Z,39.35
2018-11-06T11:23:04.928Z,39.18
2018-11-06T11:25:33.875Z,37.83
2018-11-06T11:28:02.237Z,39.55
2018-11-06T11:30:30.848Z,37.25
2018-11-06T11:32:59.726Z,39.00
2018-11-06T11:35:28.386Z,37.10
2018-11-06T11:37:56.703Z,38.17
2018-11-06T11:40:25.302Z,37.60
2018-11-06T11:42:54.323Z,36.65
2018-11-06T11:45:23.294Z,38.00
2018-11-06T11:47:53.005Z,36.50
2018-11-06T11:50:23.040Z,37.60
2018-11-06T11:52:51.751Z,35.20
2018-11-06T11:55:20.602Z,37.40
2018-11-06T11:57:49.216Z,34.00
2018-11-06T12:00:31.516Z,36.70
2018-11-06T12:02:59.929Z,37.73
2018-11-06T12:05:28.262Z,38.55
2018-11-06T12:07:56.637Z,38.50
2018-11-06T12:10:25.115Z,38.98
2018-11-06T12:13:21.101Z,40.85
2018-11-06T12:15:49.988Z,37.35
2018-11-06T12:18:26.644Z,37.48
2018-11-06T12:20:55.060Z,35.35
2018-11-06T12:23:23.423Z,36.35
2018-11-06T12:25:52.629Z,39.15
2018-11-06T12:28:21.036Z,37.70
2018-11-06T12:30:49.531Z,35.05
2018-11-06T12:33:18.005Z,37.63
2018-11-06T12:35:46.477Z,35.30
2018-11-06T12:38:15.315Z,35.65
2018-11-06T12:40:44.089Z,37.33
2018-11-06T12:43:12.748Z,36.93
2018-11-06T12:45:41.232Z,32.17
2018-11-06T12:48:09.993Z,37.60
2018-11-06T12:50:38.758Z,34.00
2018-11-06T12:53:07.352Z,32.35
2018-11-06T12:55:36.499Z,31.02
2018-11-06T12:58:05.690Z,35.03
2018-11-06T13:00:34.931Z,34.95
2018-11-06T13:03:04.795Z,34.38
2018-11-06T13:05:34.090Z,35.08
2018-11-06T13:08:04.171Z,32.05
2018-11-06T13:10:34.743Z,32.30
2018-11-06T13:13:03.980Z,33.33
2018-11-06T13:15:35.340Z,32.58
2018-11-06T13:18:04.825Z,32.40
2018-11-06T13:20:36.811Z,33.13
2018-11-06T13:23:06.602Z,35.35
2018-11-06T13:25:36.152Z,33.40
2018-11-06T13:28:06.978Z,32.35
2018-11-06T13:30:35.939Z,33.38
2018-11-06T13:33:05.082Z,31.25
2018-11-06T13:35:34.270Z,33.88
2018-11-06T13:38:04.295Z,33.42
2018-11-06T13:40:44.438Z,33.10
2018-11-06T13:43:13.287Z,31.33
2018-11-06T13:45:45.126Z,35.25
2018-11-06T13:48:15.562Z,33.53
2018-11-06T13:50:43.972Z,34.23
2018-11-06T13:53:12.372Z,34.40
2018-11-06T13:55:41.926Z,33.95
2018-11-06T13:58:11.283Z,33.65
2018-11-06T14:00:40.313Z,30.95
2018-11-06T14:03:08.656Z,32.28
2018-11-06T14:05:36.950Z,31.23
2018-11-06T14:08:09.558Z,30.70
2018-11-06T14:10:38.043Z,30.95
2018-11-06T14:13:06.374Z,31.27
2018-11-06T14:15:51.310Z,31.30
2018-11-06T14:18:32.373Z,28.73
2018-11-06T14:21:09.488Z,30.23
2018-11-06T14:23:48.133Z,29.23
2018-11-06T14:26:22.336Z,29.65
2018-11-06T14:32:21.855Z,27.85
2018-11-06T14:35:01.861Z,29.75
2018-11-06T14:37:40.051Z,28.87
2018-11-06T14:47:51.360Z,30.55
2018-11-06T15:14:44.947Z,31.05
2018-11-06T15:17:15.841Z,34.35
2018-11-06T15:50:18.027Z,40.03
2018-11-06T15:52:47.441Z,41.50
2018-11-06T15:57:56.862Z,43.20
2018-11-06T16:00:27.785Z,41.85
2018-11-06T16:02:57.061Z,45.95
2018-11-06T16:05:25.816Z,43.63
2018-11-06T16:10:37.330Z,43.20
2018-11-06T16:13:14.201Z,41.80
2018-11-06T16:15:43.610Z,45.45
2018-11-06T16:18:16.325Z,42.55
2018-11-06T16:20:46.301Z,42.33
2018-11-06T16:23:15.083Z,40.88
2018-11-06T16:25:44.195Z,42.20
2018-11-06T16:28:13.706Z,43.70
2018-11-06T16:30:46.563Z,43.98
2018-11-06T16:33:15.479Z,45.17
2018-11-06T16:35:44.734Z,45.55
2018-11-06T16:38:16.528Z,44.45
2018-11-06T16:40:45.224Z,45.73
2018-11-06T16:43:13.792Z,45.25
2018-11-06T16:45:43.754Z,45.52
2018-11-06T16:48:15.902Z,46.05
2018-11-06T16:50:44.947Z,43.85
2018-11-06T16:53:15.771Z,44.98
2018-11-06T16:55:53.897Z,48.15
2018-11-06T16:58:25.308Z,46.70
2018-11-06T17:00:57.480Z,46.00
2018-11-06T17:03:26.848Z,45.58
2018-11-06T17:06:02.005Z,43.55
2018-11-06T17:08:37.548Z,46.65
2018-11-06T17:11:09.349Z,44.83
2018-11-06T17:16:16.590Z,43.87
2018-11-06T17:18:49.083Z,44.67
2018-11-06T17:21:17.782Z,47.13
2018-11-06T17:23:46.222Z,46.80
2018-11-06T17:26:14.599Z,46.50
2018-11-06T17:28:43.014Z,47.88
2018-11-06T17:31:11.425Z,47.03
2018-11-06T17:33:39.899Z,46.13
2018-11-06T17:36:08.292Z,46.15
2018-11-06T17:38:36.608Z,53.00
2018-11-06T17:41:05.257Z,49.20
2018-11-06T17:58:08.818Z,50.10
2018-11-06T18:00:37.950Z,51.58
2018-11-06T18:03:08.724Z,49.73
2018-11-06T18:05:44.588Z,50.28
2018-11-06T18:11:16.978Z,49.63
2018-11-06T18:13:48.323Z,48.08
2018-11-06T18:16:17.101Z,47.85
2018-11-06T18:18:48.682Z,49.67
2018-11-06T18:21:18.872Z,48.25
2018-11-06T18:23:49.282Z,48.50
2018-11-06T18:26:19.332Z,50.55
2018-11-06T18:28:49.423Z,47.05
2018-11-06T18:31:18.082Z,49.60
2018-11-06T18:33:46.667Z,50.38
2018-11-06T18:36:18.153Z,48.90
2018-11-06T18:38:50.313Z,46.95
2018-11-06T18:41:19.658Z,49.50
2018-11-06T18:43:48.311Z,48.15
2018-11-06T18:46:18.997Z,48.68
2018-11-06T18:48:48.314Z,48.38
2018-11-06T18:51:16.945Z,47.53
2018-11-06T18:53:45.377Z,49.38
2018-11-06T18:56:13.995Z,46.73
2018-11-06T18:58:42.369Z,51.13
2018-11-06T19:01:10.716Z,50.33
2018-11-06T19:03:39.225Z,49.05
2018-11-06T19:06:07.898Z,50.90
2018-11-06T19:08:36.333Z,51.20
2018-11-06T19:11:04.618Z,49.90
2018-11-06T19:13:33.080Z,50.30
2018-11-06T19:16:01.882Z,57.60
2018-11-06T19:18:30.463Z,51.88
2018-11-06T19:20:59.068Z,51.45
2018-11-06T19:23:27.785Z,53.10
2018-11-06T19:25:57.149Z,52.88
2018-11-06T19:28:26.451Z,55.67
2018-11-06T19:30:54.996Z,52.53
2018-11-06T19:33:23.493Z,51.63
2018-11-06T19:35:56.019Z,53.28
2018-11-06T19:38:32.335Z,55.28
2018-11-06T19:41:01.219Z,55.85
2018-11-06T19:43:29.903Z,57.38
2018-11-06T19:46:00.761Z,55.95
2018-11-06T19:48:29.941Z,53.68
2018-11-06T19:51:00.777Z,53.60
2018-11-06T19:53:29.867Z,56.18
2018-11-06T19:55:58.855Z,51.77
2018-11-06T19:58:28.090Z,53.20
2018-11-06T20:00:57.948Z,53.75
2018-11-06T20:03:27.355Z,54.50
2018-11-06T20:05:56.743Z,51.10
2018-11-06T20:08:25.956Z,52.38
2018-11-06T20:10:54.555Z,51.85
2018-11-06T20:13:22.977Z,52.50
2018-11-06T20:15:51.524Z,48.87
2018-11-06T20:18:20.268Z,52.17
2018-11-06T20:20:50.690Z,51.00
2018-11-06T20:23:19.827Z,52.70
2018-11-06T20:26:02.194Z,48.58
2018-11-06T20:28:32.108Z,49.85
2018-11-06T20:31:05.152Z,47.83
2018-11-06T20:33:40.518Z,51.75
2018-11-06T20:36:10.306Z,51.28
2018-11-06T20:38:39.790Z,51.42
2018-11-06T20:41:14.383Z,50.88
2018-11-06T20:43:53.645Z,53.68
2018-11-06T20:49:12.280Z,52.93
2018-11-06T20:54:28.632Z,51.68
2018-11-06T20:57:00.040Z,53.87
2018-11-06T20:59:29.471Z,53.10
2018-11-06T21:02:02.561Z,52.05
2018-11-06T21:07:07.058Z,52.00
2018-11-06T21:09:36.505Z,58.48
2018-11-06T21:12:05.676Z,55.63
2018-11-06T21:14:35.834Z,54.65
2018-11-06T21:17:06.545Z,54.08
2018-11-06T21:19:37.169Z,53.35
2018-11-06T21:22:08.960Z,56.15
2018-11-06T21:24:38.321Z,57.75
2018-11-06T21:27:21.561Z,60.15
2018-11-06T21:29:51.611Z,58.08
2018-11-06T21:32:24.587Z,57.98
2018-11-06T21:34:54.029Z,54.98
2018-11-06T21:37:23.835Z,62.05
2018-11-06T21:39:54.959Z,54.42
2018-11-06T21:42:24.545Z,57.25
2018-11-06T21:44:57.269Z,56.20
2018-11-06T21:47:27.798Z,53.90
2018-11-06T21:49:57.616Z,55.30
2018-11-06T21:52:28.078Z,55.38
2018-11-06T21:54:57.581Z,56.08
2018-11-06T21:57:30.352Z,55.83
2018-11-06T22:00:00.966Z,56.02
2018-11-06T22:02:30.791Z,55.30
2018-11-06T22:05:01.688Z,56.58
2018-11-06T22:07:32.684Z,53.50
2018-11-06T22:10:09.500Z,56.18
2018-11-06T22:12:39.316Z,58.10
2018-11-06T22:15:11.060Z,63.50
2018-11-06T22:17:42.125Z,53.83
2018-11-06T22:20:14.593Z,57.05
2018-11-06T22:22:45.801Z,60.33
2018-11-06T22:25:15.095Z,55.30
2018-11-06T22:27:43.689Z,53.73
2018-11-06T22:30:14.200Z,56.80
2018-11-06T22:32:43.241Z,56.25
2018-11-06T22:35:13.056Z,52.90
2018-11-06T22:37:41.984Z,51.92
2018-11-06T22:40:12.070Z,55.33
2018-11-06T22:42:40.958Z,58.25
2018-11-06T22:45:11.593Z,53.52
2018-11-06T22:47:41.681Z,55.08
2018-11-06T22:50:15.215Z,57.23
2018-11-06T22:52:48.403Z,54.18
2018-11-06T22:55:18.350Z,56.05
2018-11-06T22:57:47.439Z,58.17
2018-11-06T23:00:18.350Z,56.10
2018-11-06T23:02:47.912Z,54.75
2018-11-06T23:05:17.524Z,56.10
2018-11-06T23:07:51.761Z,58.65
2018-11-06T23:10:21.155Z,54.03
2018-11-06T23:12:50.486Z,53.45
2018-11-06T23:15:20.001Z,53.45
2018-11-06T23:17:50.263Z,52.60
2018-11-06T23:20:19.519Z,56.58
2018-11-06T23:22:48.639Z,52.40
2018-11-06T23:25:17.905Z,54.00
2018-11-06T23:27:48.066Z,54.50
2018-11-06T23:30:17.238Z,54.18
2018-11-06T23:32:46.377Z,55.25
2018-11-06T23:35:16.607Z,54.08
2018-11-06T23:37:46.388Z,54.60
2018-11-06T23:40:15.393Z,55.15
2018-11-06T23:42:46.329Z,55.95
2018-11-06T23:45:20.448Z,58.00
2018-11-06T23:47:50.345Z,54.20
2018-11-06T23:50:20.422Z,52.95
2018-11-06T23:52:50.127Z,54.80
2018-11-06T23:55:20.741Z,52.85
2018-11-06T23:57:49.632Z,61.98
